sensor_id;sensor_type;location;lat;lon;timestamp;temperature;humidity
4828;DHT22;2428;48.732;9.148;2023-07-20T00:01:07;19.20;99.90
4828;DHT22;2428;48.732;9.148;2023-07-20T00:03:33;19.20;99.90
4828;DHT22;2428;48.732;9.148;2023-07-20T00:05:58;19.20;99.90
4828;DHT22;2428;48.732;9.148;2023-07-20T00:08:24;19.10;99.90
4828;DHT22;2428;48.732;9.148;2023-07-20T00:10:50;19.10;99.90
4828;DHT22;2428;48.732;9.148;2023-07-20T00:13:15;19.10;99.90
4828;DHT22;2428;48.732;9.148;2023-07-20T00:15:41;19.00;99.90
4828;DHT22;2428;48.732;9.148;2023-07-20T00:18:07;19.00;99.90
4828;DHT22;2428;48.732;9.148;2023-07-20T00:20:32;19.00;99.90
4828;DHT22;2428;48.732;9.148;2023-07-20T00:22:58;19.00;99.90
4828;DHT22;2428;48.732;9.148;2023-07-20T00:25:24;18.90;99.90
4828;DHT22;2428;48.732;9.148;2023-07-20T00:27:50;19.00;99.90
4828;DHT22;2428;48.732;9.148;2023-07-20T00:30:15;19.00;99.90
4828;DHT22;2428;48.732;9.148;2023-07-20T00:32:42;19.00;99.90
4828;DHT22;2428;48.732;9.148;2023-07-20T00:35:09;18.90;99.90
4828;DHT22;2428;48.732;9.148;2023-07-20T00:37:34;18.80;99.90
4828;DHT22;2428;48.732;9.148;2023-07-20T00:40:00;18.80;99.90
4828;DHT22;2428;48.732;9.148;2023-07-20T00:42:26;18.80;99.90
4828;DHT22;2428;48.732;9.148;2023-07-20T00:44:51;18.70;99.90
4828;DHT22;2428;48.732;9.148;2023-07-20T00:47:17;18.70;99.90
4828;DHT22;2428;48.732;9.148;2023-07-20T00:49:43;18.70;99.90
4828;DHT22;2428;48.732;9.148;2023-07-20T00:52:11;18.70;99.90
4828;DHT22;2428;48.732;9.148;2023-07-20T00:54:38;18.60;99.90
4828;DHT22;2428;48.732;9.148;2023-07-20T00:57:05;18.60;99.90
4828;DHT22;2428;48.732;9.148;2023-07-20T00:59:32;18.60;99.90
4828;DHT22;2428;48.732;9.148;2023-07-20T01:01:58;18.50;99.90
4828;DHT22;2428;48.732;9.148;2023-07-20T01:04:24;18.50;99.90
4828;DHT22;2428;48.732;9.148;2023-07-20T01:07:08;18.40;99.90
4828;DHT22;2428;48.732;9.148;2023-07-20T01:14:46;18.40;99.90
4828;DHT22;2428;48.732;9.148;2023-07-20T01:17:12;18.40;99.90
4828;DHT22;2428;48.732;9.148;2023-07-20T01:19:39;18.30;99.90
4828;DHT22;2428;48.732;9.148;2023-07-20T01:31:14;18.20;99.90
4828;DHT22;2428;48.732;9.148;2023-07-20T01:33:20;18.20;99.90
4828;DHT22;2428;48.732;9.148;2023-07-20T01:35:57;18.10;99.90
4828;DHT22;2428;48.732;9.148;2023-07-20T01:38:24;18.00;99.90
4828;DHT22;2428;48.732;9.148;2023-07-20T01:40:50;18.00;99.90
4828;DHT22;2428;48.732;9.148;2023-07-20T01:43:16;17.90;99.90
4828;DHT22;2428;48.732;9.148;2023-07-20T01:45:41;17.90;99.90
4828;DHT22;2428;48.732;9.148;2023-07-20T01:48:07;17.90;99.90
4828;DHT22;2428;48.732;9.148;2023-07-20T01:50:33;17.90;99.90
4828;DHT22;2428;48.732;9.148;2023-07-20T01:53:00;18.00;99.90
4828;DHT22;2428;48.732;9.148;2023-07-20T01:55:25;18.00;99.90
4828;DHT22;2428;48.732;9.148;2023-07-20T01:57:51;18.00;99.90
4828;DHT22;2428;48.732;9.148;2023-07-20T02:00:17;17.90;99.90
4828;DHT22;2428;48.732;9.148;2023-07-20T02:02:44;17.90;99.90
4828;DHT22;2428;48.732;9.148;2023-07-20T02:05:10;17.80;99.90
4828;DHT22;2428;48.732;9.148;2023-07-20T02:07:35;17.80;99.90
4828;DHT22;2428;48.732;9.148;2023-07-20T02:10:01;17.80;99.90
4828;DHT22;2428;48.732;9.148;2023-07-20T02:12:26;17.80;99.90
4828;DHT22;2428;48.732;9.148;2023-07-20T02:14:52;17.70;99.90
4828;DHT22;2428;48.732;9.148;2023-07-20T02:17:18;17.70;99.90
4828;DHT22;2428;48.732;9.148;2023-07-20T02:19:44;17.70;99.90
4828;DHT22;2428;48.732;9.148;2023-07-20T02:22:09;17.60;99.90
4828;DHT22;2428;48.732;9.148;2023-07-20T02:24:35;17.70;99.90
4828;DHT22;2428;48.732;9.148;2023-07-20T02:27:00;17.60;99.90
4828;DHT22;2428;48.732;9.148;2023-07-20T02:29:26;17.60;99.90
4828;DHT22;2428;48.732;9.148;2023-07-20T02:31:52;17.70;99.90
4828;DHT22;2428;48.732;9.148;2023-07-20T02:34:17;17.70;99.90
4828;DHT22;2428;48.732;9.148;2023-07-20T02:36:43;17.60;99.90
4828;DHT22;2428;48.732;9.148;2023-07-20T02:39:09;17.50;99.90
4828;DHT22;2428;48.732;9.148;2023-07-20T02:41:35;17.50;99.90
4828;DHT22;2428;48.732;9.148;2023-07-20T02:44:01;17.40;99.90
4828;DHT22;2428;48.732;9.148;2023-07-20T02:46:27;17.30;99.90
4828;DHT22;2428;48.732;9.148;2023-07-20T02:48:55;17.30;99.90
4828;DHT22;2428;48.732;9.148;2023-07-20T02:51:21;17.20;99.90
4828;DHT22;2428;48.732;9.148;2023-07-20T02:53:46;17.30;99.90
4828;DHT22;2428;48.732;9.148;2023-07-20T02:56:12;17.30;99.90
4828;DHT22;2428;48.732;9.148;2023-07-20T02:58:41;17.20;99.90
4828;DHT22;2428;48.732;9.148;2023-07-20T03:01:09;17.20;99.90
4828;DHT22;2428;48.732;9.148;2023-07-20T03:03:36;17.20;99.90
4828;DHT22;2428;48.732;9.148;2023-07-20T03:06:04;17.20;99.90
4828;DHT22;2428;48.732;9.148;2023-07-20T03:08:30;17.20;99.90
4828;DHT22;2428;48.732;9.148;2023-07-20T03:10:55;17.20;99.90
4828;DHT22;2428;48.732;9.148;2023-07-20T03:13:21;17.20;99.90
4828;DHT22;2428;48.732;9.148;2023-07-20T03:15:47;17.20;99.90
4828;DHT22;2428;48.732;9.148;2023-07-20T03:18:12;17.20;99.90
4828;DHT22;2428;48.732;9.148;2023-07-20T03:20:38;17.10;99.90
4828;DHT22;2428;48.732;9.148;2023-07-20T03:23:04;17.10;99.90
4828;DHT22;2428;48.732;9.148;2023-07-20T03:25:29;17.10;99.90
4828;DHT22;2428;48.732;9.148;2023-07-20T03:27:55;17.10;99.90
4828;DHT22;2428;48.732;9.148;2023-07-20T03:30:20;17.10;99.90
4828;DHT22;2428;48.732;9.148;2023-07-20T03:32:46;17.10;99.90
4828;DHT22;2428;48.732;9.148;2023-07-20T03:35:12;17.30;99.90
4828;DHT22;2428;48.732;9.148;2023-07-20T03:37:38;17.10;99.90
4828;DHT22;2428;48.732;9.148;2023-07-20T03:40:04;17.10;99.90
4828;DHT22;2428;48.732;9.148;2023-07-20T03:42:30;17.00;99.90
4828;DHT22;2428;48.732;9.148;2023-07-20T03:44:55;17.10;99.90
4828;DHT22;2428;48.732;9.148;2023-07-20T03:47:21;17.00;99.90
4828;DHT22;2428;48.732;9.148;2023-07-20T03:49:47;17.00;99.90
4828;DHT22;2428;48.732;9.148;2023-07-20T03:52:13;17.00;99.90
4828;DHT22;2428;48.732;9.148;2023-07-20T03:54:38;17.00;99.90
4828;DHT22;2428;48.732;9.148;2023-07-20T03:57:04;17.00;99.90
4828;DHT22;2428;48.732;9.148;2023-07-20T03:59:30;17.10;99.90
4828;DHT22;2428;48.732;9.148;2023-07-20T04:01:55;17.10;99.90
4828;DHT22;2428;48.732;9.148;2023-07-20T04:04:21;17.10;99.90
4828;DHT22;2428;48.732;9.148;2023-07-20T04:06:46;17.10;99.90
4828;DHT22;2428;48.732;9.148;2023-07-20T04:09:12;17.10;99.90
4828;DHT22;2428;48.732;9.148;2023-07-20T04:11:38;17.10;99.90
4828;DHT22;2428;48.732;9.148;2023-07-20T04:14:04;17.10;99.90
4828;DHT22;2428;48.732;9.148;2023-07-20T04:16:29;17.10;99.90
4828;DHT22;2428;48.732;9.148;2023-07-20T04:18:58;17.10;99.90
4828;DHT22;2428;48.732;9.148;2023-07-20T04:21:26;17.10;99.90
4828;DHT22;2428;48.732;9.148;2023-07-20T04:23:52;17.20;99.90
4828;DHT22;2428;48.732;9.148;2023-07-20T04:26:17;17.20;99.90
4828;DHT22;2428;48.732;9.148;2023-07-20T04:28:43;17.30;99.90
4828;DHT22;2428;48.732;9.148;2023-07-20T04:31:13;17.30;99.90
4828;DHT22;2428;48.732;9.148;2023-07-20T04:33:39;17.30;99.90
4828;DHT22;2428;48.732;9.148;2023-07-20T04:36:04;17.30;99.90
4828;DHT22;2428;48.732;9.148;2023-07-20T04:38:30;17.30;99.90
4828;DHT22;2428;48.732;9.148;2023-07-20T04:40:56;17.30;99.90
4828;DHT22;2428;48.732;9.148;2023-07-20T04:43:21;17.40;99.90
4828;DHT22;2428;48.732;9.148;2023-07-20T04:45:47;17.40;99.90
4828;DHT22;2428;48.732;9.148;2023-07-20T04:48:14;17.40;99.90
4828;DHT22;2428;48.732;9.148;2023-07-20T04:50:41;17.40;99.90
4828;DHT22;2428;48.732;9.148;2023-07-20T04:53:08;17.40;99.90
4828;DHT22;2428;48.732;9.148;2023-07-20T04:55:35;17.50;99.90
4828;DHT22;2428;48.732;9.148;2023-07-20T04:58:02;17.50;99.90
4828;DHT22;2428;48.732;9.148;2023-07-20T05:00:29;17.50;99.90
4828;DHT22;2428;48.732;9.148;2023-07-20T05:02:55;17.60;99.90
4828;DHT22;2428;48.732;9.148;2023-07-20T05:05:21;17.60;99.90
4828;DHT22;2428;48.732;9.148;2023-07-20T05:07:46;17.70;99.90
4828;DHT22;2428;48.732;9.148;2023-07-20T05:10:12;17.70;99.90
4828;DHT22;2428;48.732;9.148;2023-07-20T05:12:37;17.70;99.90
4828;DHT22;2428;48.732;9.148;2023-07-20T05:15:03;17.80;99.90
4828;DHT22;2428;48.732;9.148;2023-07-20T05:17:29;17.70;99.90
4828;DHT22;2428;48.732;9.148;2023-07-20T05:19:55;17.70;99.90
4828;DHT22;2428;48.732;9.148;2023-07-20T05:22:20;17.80;99.90
4828;DHT22;2428;48.732;9.148;2023-07-20T05:24:46;17.80;99.90
4828;DHT22;2428;48.732;9.148;2023-07-20T05:27:12;17.80;99.90
4828;DHT22;2428;48.732;9.148;2023-07-20T05:29:37;17.80;99.90
4828;DHT22;2428;48.732;9.148;2023-07-20T05:32:03;17.80;99.90
4828;DHT22;2428;48.732;9.148;2023-07-20T05:34:29;17.80;99.90
4828;DHT22;2428;48.732;9.148;2023-07-20T05:36:55;17.80;99.90
4828;DHT22;2428;48.732;9.148;2023-07-20T05:39:20;17.90;99.90
4828;DHT22;2428;48.732;9.148;2023-07-20T05:41:46;17.90;99.90
4828;DHT22;2428;48.732;9.148;2023-07-20T05:44:12;17.90;99.90
4828;DHT22;2428;48.732;9.148;2023-07-20T05:46:37;18.00;99.90
4828;DHT22;2428;48.732;9.148;2023-07-20T05:49:03;18.00;99.90
4828;DHT22;2428;48.732;9.148;2023-07-20T05:51:29;18.10;99.90
4828;DHT22;2428;48.732;9.148;2023-07-20T05:53:54;18.20;99.90
4828;DHT22;2428;48.732;9.148;2023-07-20T05:56:20;18.20;99.90
4828;DHT22;2428;48.732;9.148;2023-07-20T05:58:45;18.20;99.90
4828;DHT22;2428;48.732;9.148;2023-07-20T06:01:11;18.20;99.90
4828;DHT22;2428;48.732;9.148;2023-07-20T06:03:36;18.20;99.90
4828;DHT22;2428;48.732;9.148;2023-07-20T06:06:03;18.30;99.90
4828;DHT22;2428;48.732;9.148;2023-07-20T06:08:30;18.30;99.90
4828;DHT22;2428;48.732;9.148;2023-07-20T06:10:56;18.40;99.90
4828;DHT22;2428;48.732;9.148;2023-07-20T06:13:22;18.40;99.90
4828;DHT22;2428;48.732;9.148;2023-07-20T06:15:47;18.40;99.90
4828;DHT22;2428;48.732;9.148;2023-07-20T06:18:13;18.40;99.90
4828;DHT22;2428;48.732;9.148;2023-07-20T06:20:39;18.40;99.90
4828;DHT22;2428;48.732;9.148;2023-07-20T06:23:05;18.40;99.90
4828;DHT22;2428;48.732;9.148;2023-07-20T06:25:30;18.40;99.90
4828;DHT22;2428;48.732;9.148;2023-07-20T06:27:56;18.40;99.90
4828;DHT22;2428;48.732;9.148;2023-07-20T06:30:22;18.50;99.90
4828;DHT22;2428;48.732;9.148;2023-07-20T06:32:48;18.50;99.90
4828;DHT22;2428;48.732;9.148;2023-07-20T06:35:15;18.60;99.90
4828;DHT22;2428;48.732;9.148;2023-07-20T06:37:41;18.60;99.90
4828;DHT22;2428;48.732;9.148;2023-07-20T06:40:07;18.60;99.90
4828;DHT22;2428;48.732;9.148;2023-07-20T06:42:35;18.60;99.90
4828;DHT22;2428;48.732;9.148;2023-07-20T06:45:00;18.80;99.90
4828;DHT22;2428;48.732;9.148;2023-07-20T06:47:26;18.80;99.90
4828;DHT22;2428;48.732;9.148;2023-07-20T06:49:52;18.80;99.90
4828;DHT22;2428;48.732;9.148;2023-07-20T06:52:17;18.80;99.90
4828;DHT22;2428;48.732;9.148;2023-07-20T06:54:43;18.70;99.90
4828;DHT22;2428;48.732;9.148;2023-07-20T06:57:09;18.70;99.90
4828;DHT22;2428;48.732;9.148;2023-07-20T06:59:34;18.80;99.90
4828;DHT22;2428;48.732;9.148;2023-07-20T07:02:00;18.80;99.90
4828;DHT22;2428;48.732;9.148;2023-07-20T07:04:25;18.90;99.90
4828;DHT22;2428;48.732;9.148;2023-07-20T07:06:51;19.00;99.90
4828;DHT22;2428;48.732;9.148;2023-07-20T07:09:17;18.90;99.90
4828;DHT22;2428;48.732;9.148;2023-07-20T07:11:43;18.80;99.90
4828;DHT22;2428;48.732;9.148;2023-07-20T07:14:08;18.80;99.90
4828;DHT22;2428;48.732;9.148;2023-07-20T07:16:34;18.80;99.90
4828;DHT22;2428;48.732;9.148;2023-07-20T07:18:59;18.80;99.90
4828;DHT22;2428;48.732;9.148;2023-07-20T07:21:25;18.80;99.90
4828;DHT22;2428;48.732;9.148;2023-07-20T07:23:51;18.80;99.90
4828;DHT22;2428;48.732;9.148;2023-07-20T07:26:18;18.80;99.90
4828;DHT22;2428;48.732;9.148;2023-07-20T07:28:44;18.80;99.90
4828;DHT22;2428;48.732;9.148;2023-07-20T07:31:10;18.80;99.90
4828;DHT22;2428;48.732;9.148;2023-07-20T07:33:35;18.90;99.90
4828;DHT22;2428;48.732;9.148;2023-07-20T07:36:01;18.80;99.90
4828;DHT22;2428;48.732;9.148;2023-07-20T07:38:27;18.80;99.90
4828;DHT22;2428;48.732;9.148;2023-07-20T07:40:52;18.80;99.90
4828;DHT22;2428;48.732;9.148;2023-07-20T07:43:18;18.90;99.90
4828;DHT22;2428;48.732;9.148;2023-07-20T07:45:44;19.00;99.90
4828;DHT22;2428;48.732;9.148;2023-07-20T07:48:09;19.00;99.90
4828;DHT22;2428;48.732;9.148;2023-07-20T07:50:38;19.00;99.90
4828;DHT22;2428;48.732;9.148;2023-07-20T07:53:05;19.10;99.90
4828;DHT22;2428;48.732;9.148;2023-07-20T07:55:31;19.20;99.90
4828;DHT22;2428;48.732;9.148;2023-07-20T07:57:56;19.30;99.90
4828;DHT22;2428;48.732;9.148;2023-07-20T08:00:22;19.40;99.90
4828;DHT22;2428;48.732;9.148;2023-07-20T08:02:49;19.50;99.90
4828;DHT22;2428;48.732;9.148;2023-07-20T08:05:15;19.50;99.90
4828;DHT22;2428;48.732;9.148;2023-07-20T08:07:41;19.40;99.90
4828;DHT22;2428;48.732;9.148;2023-07-20T08:10:07;19.30;99.90
4828;DHT22;2428;48.732;9.148;2023-07-20T08:12:33;19.30;99.90
4828;DHT22;2428;48.732;9.148;2023-07-20T08:14:59;19.40;99.90
4828;DHT22;2428;48.732;9.148;2023-07-20T08:17:25;19.60;99.90
4828;DHT22;2428;48.732;9.148;2023-07-20T08:19:50;19.70;99.90
4828;DHT22;2428;48.732;9.148;2023-07-20T08:22:16;19.70;99.90
4828;DHT22;2428;48.732;9.148;2023-07-20T08:24:42;19.70;99.90
4828;DHT22;2428;48.732;9.148;2023-07-20T08:27:08;19.70;99.90
4828;DHT22;2428;48.732;9.148;2023-07-20T08:29:35;19.70;99.90
4828;DHT22;2428;48.732;9.148;2023-07-20T08:32:01;19.90;99.90
4828;DHT22;2428;48.732;9.148;2023-07-20T08:34:26;19.90;99.90
4828;DHT22;2428;48.732;9.148;2023-07-20T08:36:52;20.00;99.90
4828;DHT22;2428;48.732;9.148;2023-07-20T08:39:17;20.20;99.90
4828;DHT22;2428;48.732;9.148;2023-07-20T08:41:43;20.30;99.90
4828;DHT22;2428;48.732;9.148;2023-07-20T08:44:10;20.40;99.90
4828;DHT22;2428;48.732;9.148;2023-07-20T08:46:38;20.40;99.90
4828;DHT22;2428;48.732;9.148;2023-07-20T08:49:04;20.30;99.90
4828;DHT22;2428;48.732;9.148;2023-07-20T08:51:32;20.20;99.90
4828;DHT22;2428;48.732;9.148;2023-07-20T08:53:59;20.20;99.90
4828;DHT22;2428;48.732;9.148;2023-07-20T08:56:26;20.20;99.90
4828;DHT22;2428;48.732;9.148;2023-07-20T08:58:55;20.10;99.90
4828;DHT22;2428;48.732;9.148;2023-07-20T09:01:22;20.00;99.90
4828;DHT22;2428;48.732;9.148;2023-07-20T09:03:48;20.10;99.90
4828;DHT22;2428;48.732;9.148;2023-07-20T09:06:14;20.20;99.90
4828;DHT22;2428;48.732;9.148;2023-07-20T09:08:40;20.40;99.90
4828;DHT22;2428;48.732;9.148;2023-07-20T09:11:06;20.60;99.90
4828;DHT22;2428;48.732;9.148;2023-07-20T09:13:35;20.70;99.90
4828;DHT22;2428;48.732;9.148;2023-07-20T09:16:01;20.90;99.90
4828;DHT22;2428;48.732;9.148;2023-07-20T09:18:31;20.90;99.90
4828;DHT22;2428;48.732;9.148;2023-07-20T09:21:06;20.90;99.90
4828;DHT22;2428;48.732;9.148;2023-07-20T09:23:37;21.00;99.90
4828;DHT22;2428;48.732;9.148;2023-07-20T09:26:13;21.20;99.90
4828;DHT22;2428;48.732;9.148;2023-07-20T09:28:49;21.40;99.90
4828;DHT22;2428;48.732;9.148;2023-07-20T09:31:20;21.50;99.90
4828;DHT22;2428;48.732;9.148;2023-07-20T09:33:47;21.50;99.90
4828;DHT22;2428;48.732;9.148;2023-07-20T09:36:13;21.50;99.90
4828;DHT22;2428;48.732;9.148;2023-07-20T09:38:41;21.40;99.90
4828;DHT22;2428;48.732;9.148;2023-07-20T09:41:07;21.20;99.90
4828;DHT22;2428;48.732;9.148;2023-07-20T09:43:36;21.00;99.90
4828;DHT22;2428;48.732;9.148;2023-07-20T09:46:02;20.90;99.90
4828;DHT22;2428;48.732;9.148;2023-07-20T09:48:29;20.80;99.90
4828;DHT22;2428;48.732;9.148;2023-07-20T09:50:56;20.80;99.90
4828;DHT22;2428;48.732;9.148;2023-07-20T09:53:22;21.00;99.90
4828;DHT22;2428;48.732;9.148;2023-07-20T09:55:49;21.30;99.90
4828;DHT22;2428;48.732;9.148;2023-07-20T09:58:16;21.40;99.90
4828;DHT22;2428;48.732;9.148;2023-07-20T10:00:43;21.40;99.90
4828;DHT22;2428;48.732;9.148;2023-07-20T10:03:14;21.60;99.90
4828;DHT22;2428;48.732;9.148;2023-07-20T10:05:46;21.80;99.90
4828;DHT22;2428;48.732;9.148;2023-07-20T10:08:12;21.90;99.90
4828;DHT22;2428;48.732;9.148;2023-07-20T10:10:42;22.20;99.90
4828;DHT22;2428;48.732;9.148;2023-07-20T10:13:17;22.30;99.90
4828;DHT22;2428;48.732;9.148;2023-07-20T10:15:54;22.50;99.90
4828;DHT22;2428;48.732;9.148;2023-07-20T10:18:27;22.60;99.90
4828;DHT22;2428;48.732;9.148;2023-07-20T10:20:54;22.40;99.90
4828;DHT22;2428;48.732;9.148;2023-07-20T10:23:21;22.40;99.90
4828;DHT22;2428;48.732;9.148;2023-07-20T10:25:47;22.10;99.90
4828;DHT22;2428;48.732;9.148;2023-07-20T10:28:13;21.90;99.90
4828;DHT22;2428;48.732;9.148;2023-07-20T10:30:40;21.80;99.90
4828;DHT22;2428;48.732;9.148;2023-07-20T10:33:06;21.90;99.90
4828;DHT22;2428;48.732;9.148;2023-07-20T10:36:01;22.60;99.90
4828;DHT22;2428;48.732;9.148;2023-07-20T10:38:42;24.50;99.90
4828;DHT22;2428;48.732;9.148;2023-07-20T10:44:04;28.10;97.50
4828;DHT22;2428;48.732;9.148;2023-07-20T10:49:06;30.40;90.00
4828;DHT22;2428;48.732;9.148;2023-07-20T10:51:46;31.80;85.80
4828;DHT22;2428;48.732;9.148;2023-07-20T10:56:42;29.80;76.60
4828;DHT22;2428;48.732;9.148;2023-07-20T10:59:37;27.90;80.00
4828;DHT22;2428;48.732;9.148;2023-07-20T11:02:08;26.80;83.90
4828;DHT22;2428;48.732;9.148;2023-07-20T11:04:44;27.00;84.80
4828;DHT22;2428;48.732;9.148;2023-07-20T11:07:14;28.70;80.40
4828;DHT22;2428;48.732;9.148;2023-07-20T11:09:40;29.90;77.40
4828;DHT22;2428;48.732;9.148;2023-07-20T11:12:15;29.40;73.20
4828;DHT22;2428;48.732;9.148;2023-07-20T11:15:03;28.90;74.90
4828;DHT22;2428;48.732;9.148;2023-07-20T11:17:31;28.80;81.10
4828;DHT22;2428;48.732;9.148;2023-07-20T11:19:59;29.80;73.30
4828;DHT22;2428;48.732;9.148;2023-07-20T11:22:26;31.00;71.00
4828;DHT22;2428;48.732;9.148;2023-07-20T11:24:55;31.90;71.00
4828;DHT22;2428;48.732;9.148;2023-07-20T11:27:21;32.60;64.50
4828;DHT22;2428;48.732;9.148;2023-07-20T11:29:49;31.60;68.70
4828;DHT22;2428;48.732;9.148;2023-07-20T11:32:22;31.40;65.40
4828;DHT22;2428;48.732;9.148;2023-07-20T11:34:48;31.40;67.50
4828;DHT22;2428;48.732;9.148;2023-07-20T11:37:14;31.30;64.40
4828;DHT22;2428;48.732;9.148;2023-07-20T11:39:40;31.30;64.80
4828;DHT22;2428;48.732;9.148;2023-07-20T11:42:06;30.30;63.30
4828;DHT22;2428;48.732;9.148;2023-07-20T11:44:32;30.30;63.30
4828;DHT22;2428;48.732;9.148;2023-07-20T11:47:08;30.10;65.40
4828;DHT22;2428;48.732;9.148;2023-07-20T11:49:39;31.20;63.20
4828;DHT22;2428;48.732;9.148;2023-07-20T11:52:06;30.90;63.20
4828;DHT22;2428;48.732;9.148;2023-07-20T11:54:33;31.00;63.30
4828;DHT22;2428;48.732;9.148;2023-07-20T11:57:03;31.90;63.80
4828;DHT22;2428;48.732;9.148;2023-07-20T11:59:30;31.70;60.20
4828;DHT22;2428;48.732;9.148;2023-07-20T12:01:57;31.50;60.70
4828;DHT22;2428;48.732;9.148;2023-07-20T12:04:23;31.90;58.70
4828;DHT22;2428;48.732;9.148;2023-07-20T12:06:49;32.30;58.20
4828;DHT22;2428;48.732;9.148;2023-07-20T12:09:16;32.80;59.70
4828;DHT22;2428;48.732;9.148;2023-07-20T12:11:44;31.90;57.60
4828;DHT22;2428;48.732;9.148;2023-07-20T12:14:12;31.20;58.50
4828;DHT22;2428;48.732;9.148;2023-07-20T12:16:38;31.60;57.80
4828;DHT22;2428;48.732;9.148;2023-07-20T12:19:06;31.30;60.00
4828;DHT22;2428;48.732;9.148;2023-07-20T12:21:34;30.60;58.80
4828;DHT22;2428;48.732;9.148;2023-07-20T12:24:01;29.40;60.10
4828;DHT22;2428;48.732;9.148;2023-07-20T12:26:29;29.20;61.50
4828;DHT22;2428;48.732;9.148;2023-07-20T12:28:55;29.40;60.60
4828;DHT22;2428;48.732;9.148;2023-07-20T12:31:22;29.30;62.60
4828;DHT22;2428;48.732;9.148;2023-07-20T12:33:49;29.70;59.80
4828;DHT22;2428;48.732;9.148;2023-07-20T12:36:15;30.00;59.00
4828;DHT22;2428;48.732;9.148;2023-07-20T12:38:40;29.50;59.30
4828;DHT22;2428;48.732;9.148;2023-07-20T12:41:07;29.00;58.80
4828;DHT22;2428;48.732;9.148;2023-07-20T12:43:33;29.40;61.80
4828;DHT22;2428;48.732;9.148;2023-07-20T12:45:59;29.80;61.00
4828;DHT22;2428;48.732;9.148;2023-07-20T12:48:25;29.40;64.10
4828;DHT22;2428;48.732;9.148;2023-07-20T12:50:51;29.80;64.10
4828;DHT22;2428;48.732;9.148;2023-07-20T12:53:17;29.80;60.90
4828;DHT22;2428;48.732;9.148;2023-07-20T12:55:43;29.60;59.90
4828;DHT22;2428;48.732;9.148;2023-07-20T12:58:09;29.20;62.10
4828;DHT22;2428;48.732;9.148;2023-07-20T13:00:35;29.00;66.70
4828;DHT22;2428;48.732;9.148;2023-07-20T13:03:01;28.60;66.10
4828;DHT22;2428;48.732;9.148;2023-07-20T13:05:33;27.50;64.30
4828;DHT22;2428;48.732;9.148;2023-07-20T13:08:00;27.30;66.20
4828;DHT22;2428;48.732;9.148;2023-07-20T13:10:25;27.30;67.60
4828;DHT22;2428;48.732;9.148;2023-07-20T13:12:51;27.50;64.00
4828;DHT22;2428;48.732;9.148;2023-07-20T13:15:17;27.40;69.70
4828;DHT22;2428;48.732;9.148;2023-07-20T13:17:44;27.50;64.50
4828;DHT22;2428;48.732;9.148;2023-07-20T13:20:10;27.40;65.30
4828;DHT22;2428;48.732;9.148;2023-07-20T13:22:40;27.60;66.80
4828;DHT22;2428;48.732;9.148;2023-07-20T13:25:06;27.80;65.70
4828;DHT22;2428;48.732;9.148;2023-07-20T13:27:33;27.40;63.80
4828;DHT22;2428;48.732;9.148;2023-07-20T13:29:59;27.10;67.50
4828;DHT22;2428;48.732;9.148;2023-07-20T13:32:26;27.10;68.50
4828;DHT22;2428;48.732;9.148;2023-07-20T13:34:52;26.90;69.20
4828;DHT22;2428;48.732;9.148;2023-07-20T13:37:17;26.90;70.60
4828;DHT22;2428;48.732;9.148;2023-07-20T13:39:43;27.10;68.10
4828;DHT22;2428;48.732;9.148;2023-07-20T13:42:09;27.30;67.50
4828;DHT22;2428;48.732;9.148;2023-07-20T13:44:36;27.50;64.20
4828;DHT22;2428;48.732;9.148;2023-07-20T13:47:03;27.30;67.70
4828;DHT22;2428;48.732;9.148;2023-07-20T13:49:31;27.30;63.30
4828;DHT22;2428;48.732;9.148;2023-07-20T13:51:56;27.30;66.80
4828;DHT22;2428;48.732;9.148;2023-07-20T13:54:23;27.60;70.90
4828;DHT22;2428;48.732;9.148;2023-07-20T13:56:48;27.80;71.10
4828;DHT22;2428;48.732;9.148;2023-07-20T13:59:14;27.70;62.90
4828;DHT22;2428;48.732;9.148;2023-07-20T14:01:40;27.60;60.70
4828;DHT22;2428;48.732;9.148;2023-07-20T14:04:05;27.30;63.70
4828;DHT22;2428;48.732;9.148;2023-07-20T14:06:32;27.30;66.50
4828;DHT22;2428;48.732;9.148;2023-07-20T14:08:58;27.50;66.20
4828;DHT22;2428;48.732;9.148;2023-07-20T14:11:24;27.50;62.90
4828;DHT22;2428;48.732;9.148;2023-07-20T14:13:53;27.60;66.90
4828;DHT22;2428;48.732;9.148;2023-07-20T14:16:20;27.80;66.10
4828;DHT22;2428;48.732;9.148;2023-07-20T14:18:45;27.80;61.90
4828;DHT22;2428;48.732;9.148;2023-07-20T14:21:15;27.70;61.20
4828;DHT22;2428;48.732;9.148;2023-07-20T14:23:40;27.80;67.90
4828;DHT22;2428;48.732;9.148;2023-07-20T14:26:06;27.80;65.40
4828;DHT22;2428;48.732;9.148;2023-07-20T14:28:32;27.70;63.90
4828;DHT22;2428;48.732;9.148;2023-07-20T14:30:58;27.70;62.50
4828;DHT22;2428;48.732;9.148;2023-07-20T14:33:24;27.80;63.20
4828;DHT22;2428;48.732;9.148;2023-07-20T14:35:50;27.30;61.50
4828;DHT22;2428;48.732;9.148;2023-07-20T14:38:15;27.10;61.70
4828;DHT22;2428;48.732;9.148;2023-07-20T14:40:41;27.00;62.80
4828;DHT22;2428;48.732;9.148;2023-07-20T14:43:07;27.10;64.00
4828;DHT22;2428;48.732;9.148;2023-07-20T14:45:32;26.90;66.20
4828;DHT22;2428;48.732;9.148;2023-07-20T14:47:58;27.10;63.60
4828;DHT22;2428;48.732;9.148;2023-07-20T14:50:24;27.20;62.80
4828;DHT22;2428;48.732;9.148;2023-07-20T14:52:50;27.00;64.20
4828;DHT22;2428;48.732;9.148;2023-07-20T14:55:16;26.90;64.20
4828;DHT22;2428;48.732;9.148;2023-07-20T14:57:42;27.00;65.50
4828;DHT22;2428;48.732;9.148;2023-07-20T15:00:08;26.90;64.40
4828;DHT22;2428;48.732;9.148;2023-07-20T15:02:38;27.10;67.70
4828;DHT22;2428;48.732;9.148;2023-07-20T15:05:08;27.30;61.90
4828;DHT22;2428;48.732;9.148;2023-07-20T15:07:34;27.40;63.60
4828;DHT22;2428;48.732;9.148;2023-07-20T15:10:00;27.40;65.10
4828;DHT22;2428;48.732;9.148;2023-07-20T15:12:25;27.20;61.60
4828;DHT22;2428;48.732;9.148;2023-07-20T15:15:07;26.90;63.00
4828;DHT22;2428;48.732;9.148;2023-07-20T15:17:33;26.60;63.30
4828;DHT22;2428;48.732;9.148;2023-07-20T15:19:59;26.60;66.30
4828;DHT22;2428;48.732;9.148;2023-07-20T15:22:25;26.30;63.70
4828;DHT22;2428;48.732;9.148;2023-07-20T15:24:51;26.60;64.50
4828;DHT22;2428;48.732;9.148;2023-07-20T15:27:17;26.70;63.40
4828;DHT22;2428;48.732;9.148;2023-07-20T15:29:42;26.70;64.10
4828;DHT22;2428;48.732;9.148;2023-07-20T15:32:09;26.50;64.90
4828;DHT22;2428;48.732;9.148;2023-07-20T15:34:35;26.40;62.00
4828;DHT22;2428;48.732;9.148;2023-07-20T15:37:01;26.40;62.60
4828;DHT22;2428;48.732;9.148;2023-07-20T15:39:28;26.40;63.00
4828;DHT22;2428;48.732;9.148;2023-07-20T15:41:55;26.40;62.70
4828;DHT22;2428;48.732;9.148;2023-07-20T15:44:20;26.50;62.30
4828;DHT22;2428;48.732;9.148;2023-07-20T15:46:47;26.40;64.20
4828;DHT22;2428;48.732;9.148;2023-07-20T15:49:13;26.40;64.50
4828;DHT22;2428;48.732;9.148;2023-07-20T15:51:39;26.40;62.90
4828;DHT22;2428;48.732;9.148;2023-07-20T15:54:09;26.30;64.70
4828;DHT22;2428;48.732;9.148;2023-07-20T15:56:36;26.50;65.00
4828;DHT22;2428;48.732;9.148;2023-07-20T15:59:02;26.40;65.50
4828;DHT22;2428;48.732;9.148;2023-07-20T16:01:27;26.20;63.30
4828;DHT22;2428;48.732;9.148;2023-07-20T16:03:54;26.10;65.80
4828;DHT22;2428;48.732;9.148;2023-07-20T16:06:20;26.00;65.60
4828;DHT22;2428;48.732;9.148;2023-07-20T16:08:45;26.00;66.30
4828;DHT22;2428;48.732;9.148;2023-07-20T16:11:11;25.80;64.60
4828;DHT22;2428;48.732;9.148;2023-07-20T16:13:37;25.50;64.50
4828;DHT22;2428;48.732;9.148;2023-07-20T16:16:02;25.20;65.80
4828;DHT22;2428;48.732;9.148;2023-07-20T16:18:28;25.10;66.40
4828;DHT22;2428;48.732;9.148;2023-07-20T16:20:55;25.00;66.20